Time;durP1;ratioP1;P1;durP2;ratioP2;P2;SDS_P1;SDS_P2;PMS_P1;PMS_P2;Temp;Humidity;BMP_temperature;BMP_pressure;BME280_temperature;BME280_humidity;BME280_pressure;Samples;Min_cycle;Max_cycle;Signal;HPM_P1;HPM_P2
2022/01/20 00:02:06;;;;;;;109.90;55.97;;;;;;;3.69;100.00;99628.56;5134612;27;20043;-95
2022/01/20 00:07:31;;;;;;;90.88;48.90;;;;;;;4.02;100.00;99644.78;5107311;27;20368;-94
2022/01/20 00:28:10;;;;;;;74.30;39.45;;;;;;;4.20;100.00;99612.53;5115336;27;20396;-93
2022/01/20 00:30:44;;;;;;;112.15;56.90;;;;;;;4.23;100.00;99610.84;5113969;28;20047;-93
2022/01/20 00:38:44;;;;;;;84.32;47.78;;;;;;;4.13;100.00;99600.19;5113369;28;20056;-93
2022/01/20 00:41:15;;;;;;;92.38;47.95;;;;;;;4.11;100.00;99581.72;5114922;28;20047;-94
2022/01/20 00:43:41;;;;;;;85.18;46.60;;;;;;;4.17;100.00;99587.06;5114758;28;20036;-94
2022/01/20 00:46:07;;;;;;;89.20;47.65;;;;;;;4.10;100.00;99572.09;5114162;28;20035;-93
2022/01/20 00:48:33;;;;;;;107.72;56.72;;;;;;;4.12;100.00;99588.78;5114220;28;20051;-92
2022/01/20 00:51:01;;;;;;;83.13;45.75;;;;;;;4.21;100.00;99596.78;5115277;28;20043;-94
2022/01/20 00:53:27;;;;;;;83.15;43.05;;;;;;;4.17;100.00;99558.13;5115075;27;20465;-93
2022/01/20 00:55:53;;;;;;;78.13;42.30;;;;;;;4.33;100.00;99564.44;5115494;28;20044;-94
2022/01/20 00:58:20;;;;;;;82.80;44.30;;;;;;;4.54;100.00;99582.22;5116151;28;20040;-94
2022/01/20 01:00:45;;;;;;;83.22;44.17;;;;;;;4.66;100.00;99590.25;5117516;28;20051;-95
2022/01/20 01:03:11;;;;;;;77.75;44.03;;;;;;;4.60;100.00;99582.28;5117214;28;20047;-96
2022/01/20 01:05:48;;;;;;;76.95;41.95;;;;;;;4.66;100.00;99574.44;5117250;28;20065;-95
2022/01/20 01:08:18;;;;;;;69.63;38.08;;;;;;;4.66;100.00;99574.44;5115052;28;20042;-95
2022/01/20 01:10:45;;;;;;;66.75;37.28;;;;;;;4.61;100.00;99559.44;5115721;28;20044;-94
2022/01/20 01:13:14;;;;;;;69.38;37.60;;;;;;;4.80;100.00;99582.47;5112522;28;20044;-95
2022/01/20 01:15:45;;;;;;;59.80;34.90;;;;;;;4.78;100.00;99573.66;5114589;28;20126;-94
2022/01/20 01:24:21;;;;;;;60.92;35.00;;;;;;;4.81;100.00;99557.00;5115989;27;20730;-95
2022/01/20 01:26:48;;;;;;;63.85;34.70;;;;;;;4.73;100.00;99555.19;5114948;27;20047;-96
2022/01/20 01:29:41;;;;;;;63.10;35.20;;;;;;;4.76;100.00;99554.31;5115479;28;20052;-95
2022/01/20 01:32:06;;;;;;;56.27;33.30;;;;;;;4.63;100.00;99550.69;5113886;28;20121;-95
2022/01/20 01:34:35;;;;;;;63.13;34.05;;;;;;;4.48;100.00;99545.28;5114399;28;20043;-95
2022/01/20 01:39:48;;;;;;;57.17;31.98;;;;;;;4.08;100.00;99537.84;5135362;27;20387;-93
2022/01/20 01:42:14;;;;;;;51.58;31.13;;;;;;;3.83;100.00;99534.03;5134622;28;20088;-95
2022/01/20 01:44:40;;;;;;;55.38;30.80;;;;;;;3.75;100.00;99546.19;5134200;28;20051;-95
2022/01/20 01:47:06;;;;;;;51.72;31.23;;;;;;;3.64;100.00;99553.97;5135380;28;20047;-95
2022/01/20 01:49:32;;;;;;;59.53;33.20;;;;;;;3.49;100.00;99549.38;5134665;28;20070;-94
2022/01/20 01:51:57;;;;;;;61.42;34.08;;;;;;;3.30;100.00;99515.81;5134667;28;20067;-93
2022/01/20 01:54:24;;;;;;;66.75;35.00;;;;;;;3.32;100.00;99523.69;5135289;27;20084;-95
2022/01/20 01:56:53;;;;;;;72.50;38.40;;;;;;;3.21;100.00;99511.31;5135008;28;20050;-94
2022/01/20 01:59:19;;;;;;;63.38;36.10;;;;;;;3.18;100.00;99498.09;5134610;28;20044;-94
2022/01/20 02:01:44;;;;;;;61.10;35.25;;;;;;;3.16;100.00;99506.84;5133919;28;20100;-94
2022/01/20 02:04:16;;;;;;;83.72;42.00;;;;;;;2.96;100.00;99482.91;5135566;27;20097;-94
2022/01/20 02:21:23;;;;;;;129.82;63.55;;;;;;;3.69;100.00;99477.75;5050130;28;20376;-93
2022/01/20 02:23:49;;;;;;;122.50;60.85;;;;;;;3.57;100.00;99448.66;5034270;28;20046;-95
2022/01/20 02:26:15;;;;;;;120.25;61.33;;;;;;;3.72;100.00;99466.38;5035126;28;20442;-95
2022/01/20 02:28:44;;;;;;;116.07;59.10;;;;;;;3.71;100.00;99452.34;5034041;28;20038;-95
2022/01/20 02:31:10;;;;;;;117.35;58.10;;;;;;;3.68;100.00;99442.66;5035055;28;20042;-95
2022/01/20 02:33:37;;;;;;;109.78;53.88;;;;;;;3.72;100.00;99454.09;5035477;28;20123;-95
2022/01/20 02:36:12;;;;;;;95.43;47.65;;;;;;;3.81;100.00;99467.34;5035027;28;20136;-95
2022/01/20 02:38:46;;;;;;;81.18;44.88;;;;;;;3.74;100.00;99438.34;5034598;28;20049;-95
2022/01/20 02:47:18;;;;;;;84.75;41.55;;;;;;;4.36;100.00;99476.69;5136348;27;20383;-95
2022/01/20 02:49:45;;;;;;;79.18;42.17;;;;;;;4.23;100.00;99444.09;5136848;28;20452;-95
2022/01/20 02:52:11;;;;;;;78.38;40.28;;;;;;;4.28;100.00;99443.28;5135606;28;20047;-95
2022/01/20 02:54:37;;;;;;;71.15;39.55;;;;;;;4.31;100.00;99439.78;5136146;28;20035;-94
2022/01/20 02:57:06;;;;;;;71.35;39.67;;;;;;;4.28;100.00;99427.47;5136149;28;20040;-95
2022/01/20 03:00:03;;;;;;;68.07;36.03;;;;;;;4.33;100.00;99406.44;5135774;28;20052;-95
2022/01/20 03:02:32;;;;;;;69.07;35.13;;;;;;;4.29;100.00;99409.91;5136437;28;20120;-96
2022/01/20 03:04:58;;;;;;;67.07;35.58;;;;;;;4.34;100.00;99421.41;5136607;28;20043;-95
2022/01/20 03:07:25;;;;;;;61.80;34.50;;;;;;;4.24;100.00;99411.66;5135816;28;20109;-94
2022/01/20 03:09:51;;;;;;;68.60;37.63;;;;;;;4.26;100.00;99420.44;5137466;28;20048;-94
2022/01/20 03:12:17;;;;;;;61.60;35.53;;;;;;;4.38;100.00;99440.72;5135618;28;20040;-95
2022/01/20 03:14:44;;;;;;;59.65;34.42;;;;;;;4.32;100.00;99415.22;5135925;28;20087;-94
2022/01/20 03:17:13;;;;;;;65.80;34.72;;;;;;;4.42;100.00;99419.69;5134866;28;20504;-94
2022/01/20 03:19:44;;;;;;;63.50;35.97;;;;;;;4.38;100.00;99398.56;5136856;27;20100;-95
2022/01/20 03:22:10;;;;;;;62.95;33.90;;;;;;;4.55;100.00;99425.94;5135554;28;20431;-96
2022/01/20 03:24:40;;;;;;;60.15;33.63;;;;;;;4.53;100.00;99423.31;5135473;28;20039;-94
2022/01/20 03:27:06;;;;;;;60.38;34.38;;;;;;;4.47;100.00;99412.72;5136181;28;20054;-95
2022/01/20 03:29:34;;;;;;;67.40;35.58;;;;;;;4.56;100.00;99426.84;5139583;28;20393;-95
2022/01/20 03:32:02;;;;;;;55.90;32.77;;;;;;;4.41;100.00;99393.34;5148187;22;20084;-96
2022/01/20 03:34:30;;;;;;;57.05;31.92;;;;;;;4.52;100.00;99418.88;5064027;28;20053;-96
2022/01/20 03:37:03;;;;;;;52.70;31.48;;;;;;;4.40;100.00;99396.84;5063618;28;20038;-96
2022/01/20 03:39:30;;;;;;;62.33;32.83;;;;;;;4.56;100.00;99422.44;5063489;28;20037;-95
2022/01/20 03:41:57;;;;;;;61.58;34.13;;;;;;;4.64;100.00;99423.38;5054236;28;20107;-94
2022/01/20 03:44:23;;;;;;;58.65;33.78;;;;;;;4.53;100.00;99402.22;5053841;28;20075;-95
2022/01/20 03:46:57;;;;;;;58.33;33.22;;;;;;;4.60;100.00;99410.16;5054728;28;20045;-96
2022/01/20 03:49:34;;;;;;;63.13;35.13;;;;;;;4.49;100.00;99387.28;5056463;28;20049;-96
2022/01/20 03:52:03;;;;;;;64.47;34.53;;;;;;;4.55;100.00;99386.41;5056586;28;20052;-95
2022/01/20 03:54:29;;;;;;;58.17;32.30;;;;;;;4.70;100.00;99412.00;5053839;28;20045;-94
2022/01/20 03:56:55;;;;;;;60.25;33.13;;;;;;;4.56;100.00;99372.41;5051232;28;20047;-96
2022/01/20 03:59:21;;;;;;;55.40;30.55;;;;;;;4.82;100.00;99405.94;5042902;28;20041;-95
2022/01/20 04:01:48;;;;;;;63.13;32.80;;;;;;;4.62;100.00;99369.81;5041089;28;20045;-96
2022/01/20 04:04:14;;;;;;;56.00;32.60;;;;;;;4.56;100.00;99351.31;5041439;28;20089;-96
2022/01/20 04:06:41;;;;;;;56.15;31.20;;;;;;;4.62;100.00;99361.00;5040465;28;20112;-96
2022/01/20 04:09:08;;;;;;;58.20;31.52;;;;;;;4.60;100.00;99363.66;5040489;28;20050;-96
2022/01/20 04:11:37;;;;;;;53.28;30.35;;;;;;;4.64;100.00;99370.69;5040360;28;20083;-96
2022/01/20 04:14:03;;;;;;;50.42;28.98;;;;;;;4.84;100.00;99386.63;5040810;28;20054;-95
2022/01/20 04:16:36;;;;;;;49.70;28.85;;;;;;;4.85;100.00;99392.78;5040055;28;20038;-96
2022/01/20 04:19:07;;;;;;;44.72;26.90;;;;;;;4.71;100.00;99359.31;5043584;28;20049;-96
2022/01/20 04:21:34;;;;;;;50.67;28.08;;;;;;;4.60;100.00;99337.31;5040659;28;20045;-96
2022/01/20 04:24:02;;;;;;;46.45;26.55;;;;;;;4.72;100.00;99354.94;5041957;28;20136;-95
2022/01/20 04:26:35;;;;;;;45.53;26.58;;;;;;;4.70;100.00;99344.38;5040844;28;20048;-95
2022/01/20 04:29:02;;;;;;;47.78;26.83;;;;;;;4.64;100.00;99343.44;5040688;28;20056;-96
2022/01/20 04:31:30;;;;;;;50.90;26.20;;;;;;;4.76;100.00;99356.72;5038442;28;20072;-96
2022/01/20 04:33:58;;;;;;;43.38;26.55;;;;;;;4.71;100.00;99348.78;5039112;28;20041;-96
2022/01/20 04:36:26;;;;;;;45.58;25.50;;;;;;;4.74;100.00;99369.88;5037807;28;20037;-96
2022/01/20 04:38:52;;;;;;;41.83;25.25;;;;;;;4.64;100.00;99349.63;5039072;28;20053;-95
2022/01/20 04:41:20;;;;;;;41.88;23.67;;;;;;;4.82;100.00;99371.69;5039332;28;20060;-95
2022/01/20 04:43:48;;;;;;;39.55;23.92;;;;;;;4.77;100.00;99358.50;5039592;28;20064;-95
2022/01/20 04:57:50;;;;;;;45.63;26.67;;;;;;;4.72;100.00;99344.38;5095385;27;20371;-96
2022/01/20 05:00:16;;;;;;;48.40;28.95;;;;;;;4.68;100.00;99353.13;5094980;28;20044;-95
2022/01/20 05:02:42;;;;;;;54.67;30.02;;;;;;;4.76;100.00;99361.97;5094619;28;20060;-95
2022/01/20 05:05:09;;;;;;;50.85;29.25;;;;;;;4.71;100.00;99356.69;5095819;28;20040;-95
2022/01/20 05:07:35;;;;;;;55.75;30.13;;;;;;;4.65;100.00;99346.09;5095691;28;20521;-95
2022/01/20 05:10:06;;;;;;;56.38;30.00;;;;;;;4.78;100.00;99368.13;5098167;28;20048;-95
2022/01/20 05:12:59;;;;;;;55.63;31.77;;;;;;;4.72;100.00;99358.44;5095061;28;20064;-96
2022/01/20 05:15:24;;;;;;;48.70;28.58;;;;;;;4.68;100.00;99340.88;5093731;28;20512;-95
2022/01/20 05:17:51;;;;;;;49.05;28.20;;;;;;;4.79;100.00;99361.09;5094591;28;20062;-95
2022/01/20 05:20:17;;;;;;;51.90;28.13;;;;;;;4.67;100.00;99341.72;5094950;28;20498;-95
2022/01/20 05:22:43;;;;;;;50.38;27.38;;;;;;;4.70;100.00;99348.75;5094840;28;20131;-94
2022/01/20 05:25:09;;;;;;;51.47;28.33;;;;;;;4.59;100.00;99325.00;5095590;28;20036;-95
2022/01/20 05:27:35;;;;;;;47.45;29.05;;;;;;;4.59;100.00;99327.63;5095392;28;20045;-96
2022/01/20 05:30:01;;;;;;;51.13;29.50;;;;;;;4.74;100.00;99351.41;5096055;28;20040;-96
2022/01/20 05:32:29;;;;;;;48.90;28.05;;;;;;;4.64;100.00;99330.28;5095053;28;20055;-96
2022/01/20 05:34:54;;;;;;;60.80;30.40;;;;;;;4.70;100.00;99330.31;5096972;28;20028;-95
2022/01/20 05:37:20;;;;;;;52.90;28.90;;;;;;;4.81;100.00;99331.25;5096090;28;20152;-94
2022/01/20 05:39:46;;;;;;;57.38;28.30;;;;;;;4.86;100.00;99334.81;5097088;28;20135;-94
2022/01/20 05:42:15;;;;;;;46.47;26.88;;;;;;;4.90;100.00;99327.78;5099034;28;20045;-95
2022/01/20 05:44:43;;;;;;;42.45;24.27;;;;;;;4.99;100.00;99334.84;5097603;28;20108;-95
2022/01/20 05:47:11;;;;;;;42.15;23.30;;;;;;;5.12;100.00;99353.38;5094913;28;20089;-96
2022/01/20 05:49:40;;;;;;;42.35;23.52;;;;;;;5.04;100.00;99341.91;5095380;28;20036;-94
2022/01/20 05:52:06;;;;;;;43.22;23.90;;;;;;;4.97;100.00;99326.97;5094172;28;20055;-95
2022/01/20 05:54:32;;;;;;;42.03;24.05;;;;;;;4.95;100.00;99323.44;5094573;28;20044;-95
2022/01/20 05:56:57;;;;;;;41.88;25.33;;;;;;;5.02;100.00;99335.75;5094335;28;20363;-94
2022/01/20 05:59:23;;;;;;;40.60;23.98;;;;;;;5.05;100.00;99340.16;5093989;28;20093;-94
2022/01/20 06:01:56;;;;;;;38.22;22.52;;;;;;;5.13;100.00;99359.53;5094196;28;20512;-96
2022/01/20 06:04:22;;;;;;;43.47;25.20;;;;;;;4.99;100.00;99313.75;5095496;28;20051;-96
2022/01/20 06:06:50;;;;;;;45.92;26.00;;;;;;;5.06;100.00;99327.00;5093837;28;20044;-95
2022/01/20 06:09:16;;;;;;;41.80;23.80;;;;;;;4.98;100.00;99312.88;5081057;28;20502;-95
2022/01/20 06:11:42;;;;;;;43.33;23.77;;;;;;;5.03;100.00;99324.34;5082888;28;20056;-95
2022/01/20 06:14:08;;;;;;;43.15;22.05;;;;;;;5.26;100.00;99357.81;5085049;28;20048;-96
2022/01/20 06:16:35;;;;;;;37.90;22.55;;;;;;;5.17;100.00;99331.44;5083890;28;20435;-95
2022/01/20 06:19:06;;;;;;;43.22;20.95;;;;;;;5.23;100.00;99327.06;5080347;28;20498;-96
2022/01/20 06:21:32;;;;;;;36.05;20.20;;;;;;;5.28;100.00;99327.06;5085128;28;20041;-95
2022/01/20 06:24:04;;;;;;;33.88;18.30;;;;;;;5.42;100.00;99342.91;5088546;28;20068;-96
2022/01/20 06:26:30;;;;;;;35.88;21.15;;;;;;;5.30;100.00;99317.41;5089191;28;20040;-95
2022/01/20 06:28:56;;;;;;;36.00;23.15;;;;;;;5.45;100.00;99332.41;5090525;28;20108;-94
2022/01/20 06:31:23;;;;;;;43.15;25.77;;;;;;;5.38;100.00;99320.03;5087101;28;20044;-96
2022/01/20 06:33:49;;;;;;;39.83;22.75;;;;;;;5.28;100.00;99305.97;5087045;28;20049;-95
2022/01/20 06:36:15;;;;;;;32.08;19.23;;;;;;;5.32;100.00;99297.19;5086093;28;20124;-96
2022/01/20 06:38:42;;;;;;;33.67;18.60;;;;;;;5.30;100.00;99304.22;5086771;28;20146;-95
2022/01/20 06:41:10;;;;;;;34.25;19.67;;;;;;;5.31;100.00;99308.59;5085936;28;20040;-95
2022/01/20 06:43:36;;;;;;;26.50;17.27;;;;;;;5.27;100.00;99305.09;5083847;28;20044;-95
2022/01/20 06:46:02;;;;;;;28.63;16.10;;;;;;;5.46;100.00;99342.06;5084719;28;20028;-94
2022/01/20 06:48:28;;;;;;;27.60;16.40;;;;;;;5.35;100.00;99321.78;5088484;28;20051;-94
2022/01/20 06:50:55;;;;;;;27.77;15.15;;;;;;;5.49;100.00;99337.69;5085425;28;20083;-95
2022/01/20 06:53:24;;;;;;;25.83;14.20;;;;;;;5.45;100.00;99333.28;5083904;28;20051;-95
2022/01/20 06:55:50;;;;;;;24.85;14.13;;;;;;;5.49;100.00;99350.88;5085174;28;20049;-95
2022/01/20 06:58:18;;;;;;;25.15;14.32;;;;;;;5.30;100.00;99320.03;5090695;28;20051;-96
2022/01/20 07:00:44;;;;;;;26.83;15.63;;;;;;;5.30;100.00;99323.56;5089777;28;20060;-96
2022/01/20 07:03:12;;;;;;;21.98;14.57;;;;;;;5.30;100.00;99325.31;5089759;28;20075;-95
2022/01/20 07:05:38;;;;;;;24.10;14.90;;;;;;;5.48;100.00;99349.09;5089223;28;20049;-96
2022/01/20 07:08:11;;;;;;;;;;;;;;;5.46;100.00;99345.56;5090366;28;20055;-96
2022/01/20 07:10:38;;;;;;;24.60;14.65;;;;;;;5.25;100.00;99305.97;5093053;28;19928;-96
2022/01/20 07:13:04;;;;;;;27.13;15.77;;;;;;;5.35;100.00;99307.75;5089866;28;20040;-93
2022/01/20 07:15:33;;;;;;;30.02;16.38;;;;;;;5.34;100.00;99306.88;5083780;28;20410;-96
2022/01/20 07:18:02;;;;;;;27.25;16.55;;;;;;;5.52;100.00;99350.00;5087064;28;20097;-96
2022/01/20 07:20:28;;;;;;;27.35;15.35;;;;;;;5.39;100.00;99330.59;5087233;28;20054;-96
2022/01/20 07:22:54;;;;;;;26.45;15.55;;;;;;;5.33;100.00;99315.66;5085999;28;20104;-96
2022/01/20 07:25:20;;;;;;;24.60;15.10;;;;;;;5.48;100.00;99332.41;5083963;28;20524;-95
2022/01/20 07:27:46;;;;;;;27.23;14.88;;;;;;;5.41;100.00;99323.59;5082932;28;20068;-95
2022/01/20 07:30:13;;;;;;;26.55;15.10;;;;;;;5.44;100.00;99318.31;5082682;28;20048;-95
2022/01/20 07:32:42;;;;;;;29.95;17.65;;;;;;;5.59;100.00;99342.97;5081128;28;20056;-94
2022/01/20 07:35:08;;;;;;;29.55;18.70;;;;;;;5.60;100.00;99337.72;5080031;28;20048;-94
2022/01/20 07:37:35;;;;;;;29.13;18.98;;;;;;;5.42;100.00;99304.25;5079892;28;20398;-92
2022/01/20 07:40:01;;;;;;;35.20;18.30;;;;;;;5.40;100.00;99299.84;5080008;28;20041;-94
2022/01/20 07:42:27;;;;;;;33.53;18.38;;;;;;;5.43;100.00;99298.09;5080572;28;20040;-95
2022/01/20 07:44:53;;;;;;;31.02;18.13;;;;;;;5.43;100.00;99300.72;5081218;28;20048;-95
2022/01/20 07:47:19;;;;;;;32.25;19.02;;;;;;;5.52;100.00;99313.94;5080714;28;20562;-94
2022/01/20 07:49:46;;;;;;;34.90;19.85;;;;;;;5.38;100.00;99296.31;5080832;28;20049;-92
2022/01/20 07:52:14;;;;;;;32.47;20.40;;;;;;;5.51;100.00;99322.75;5080323;28;20066;-94
2022/01/20 07:54:40;;;;;;;26.55;16.83;;;;;;;5.47;100.00;99309.53;5080975;28;20117;-94
2022/01/20 07:57:07;;;;;;;33.38;18.63;;;;;;;5.49;100.00;99313.06;5083321;28;20036;-94
2022/01/20 07:59:33;;;;;;;29.83;17.88;;;;;;;5.44;100.00;99296.34;5081762;28;20044;-96
2022/01/20 08:02:00;;;;;;;27.30;16.48;;;;;;;5.44;100.00;99296.34;5082281;28;20047;-94
2022/01/20 08:04:26;;;;;;;25.67;15.73;;;;;;;5.48;100.00;99314.81;5084418;28;20052;-93
2022/01/20 08:06:53;;;;;;;31.23;18.85;;;;;;;5.68;100.00;99345.63;5083826;28;20414;-94
2022/01/20 08:09:19;;;;;;;45.03;25.17;;;;;;;5.65;100.00;99337.72;5081242;28;20128;-95
2022/01/20 08:11:45;;;;;;;55.35;30.88;;;;;;;5.69;100.00;99352.69;5079702;28;20076;-92
2022/01/20 08:14:11;;;;;;;47.17;25.42;;;;;;;5.75;100.00;99350.94;5080210;28;20079;-94
2022/01/20 08:16:37;;;;;;;36.55;24.13;;;;;;;5.73;100.00;99341.25;5080010;28;20040;-94
2022/01/20 08:19:03;;;;;;;38.30;21.45;;;;;;;5.68;100.00;99321.88;5078338;28;20040;-93
2022/01/20 08:21:29;;;;;;;34.03;19.50;;;;;;;5.73;100.00;99323.66;5077621;28;20452;-94
2022/01/20 08:23:56;;;;;;;30.33;18.40;;;;;;;5.84;100.00;99339.50;5079069;28;20040;-94
2022/01/20 08:26:22;;;;;;;31.40;19.85;;;;;;;5.81;100.00;99328.03;5077828;28;20051;-93
2022/01/20 08:28:49;;;;;;;25.75;14.95;;;;;;;5.75;100.00;99315.75;5078550;28;20045;-96
2022/01/20 08:31:14;;;;;;;28.30;17.33;;;;;;;5.82;100.00;99335.97;5077920;28;20104;-95
2022/01/20 08:33:40;;;;;;;26.42;16.98;;;;;;;5.87;100.00;99331.56;5081849;28;20064;-96
2022/01/20 08:36:06;;;;;;;28.05;14.80;;;;;;;5.73;100.00;99299.91;5083448;28;20127;-95
2022/01/20 08:38:33;;;;;;;24.42;14.38;;;;;;;5.91;100.00;99333.34;5087003;28;20044;-95
2022/01/20 08:41:02;;;;;;;26.20;14.73;;;;;;;5.89;100.00;99332.44;5087531;28;20045;-94
2022/01/20 08:43:29;;;;;;;29.52;16.70;;;;;;;5.73;100.00;99304.31;5086056;28;20045;-95
2022/01/20 08:45:55;;;;;;;25.33;15.43;;;;;;;5.77;100.00;99314.00;5080815;28;20498;-95
2022/01/20 08:48:21;;;;;;;29.83;16.05;;;;;;;5.73;100.00;99310.47;5080866;28;20076;-95
2022/01/20 08:50:47;;;;;;;26.08;16.77;;;;;;;5.87;100.00;99318.38;5080079;28;20048;-95
2022/01/20 08:53:16;;;;;;;29.27;17.17;;;;;;;5.72;100.00;99294.63;5080782;28;20078;-95
2022/01/20 08:55:42;;;;;;;29.73;17.15;;;;;;;5.84;100.00;99322.78;5077936;28;20060;-95
2022/01/20 08:58:10;;;;;;;25.77;17.58;;;;;;;5.87;100.00;99347.41;5079051;28;20136;-96
2022/01/20 09:00:36;;;;;;;32.75;18.10;;;;;;;5.90;100.00;99343.91;5077863;28;20053;-96
2022/01/20 09:03:03;;;;;;;28.90;17.77;;;;;;;5.89;100.00;99344.78;5076861;28;20063;-95
2022/01/20 09:05:29;;;;;;;31.63;18.13;;;;;;;5.72;100.00;99307.81;5076276;28;20041;-95
2022/01/20 09:07:55;;;;;;;32.63;18.23;;;;;;;5.76;100.00;99310.44;5075100;28;20051;-94
2022/01/20 09:10:21;;;;;;;28.92;18.13;;;;;;;5.85;100.00;99324.53;5075525;28;20072;-95
2022/01/20 09:15:34;;;;;;;28.55;18.92;;;;;;;5.97;100.00;99348.34;5114771;27;20746;-95
2022/01/20 09:18:03;;;;;;;34.53;21.37;;;;;;;5.95;100.00;99345.69;5114106;28;20044;-95
2022/01/20 09:20:29;;;;;;;49.25;28.15;;;;;;;5.94;100.00;99340.38;5114133;28;20052;-95
2022/01/20 09:22:56;;;;;;;38.42;22.30;;;;;;;5.97;100.00;99345.72;5113518;28;20399;-94
2022/01/20 09:25:24;;;;;;;28.25;17.48;;;;;;;5.86;100.00;99308.72;5113433;28;20040;-93
2022/01/20 09:27:51;;;;;;;32.80;18.73;;;;;;;5.96;100.00;99334.28;5113756;28;20443;-94
2022/01/20 09:30:19;;;;;;;28.88;17.30;;;;;;;6.00;100.00;99335.13;5113584;28;20122;-95
2022/01/20 09:32:58;;;;;;;26.17;15.35;;;;;;;5.93;100.00;99306.94;5113977;28;20090;-94
2022/01/20 09:35:28;;;;;;;24.88;15.25;;;;;;;6.00;100.00;99306.09;5113708;28;20394;-94
2022/01/20 09:37:59;;;;;;;21.58;13.20;;;;;;;6.07;100.00;99310.50;5113601;28;20481;-94
2022/01/20 09:40:26;;;;;;;22.83;12.85;;;;;;;6.03;100.00;99307.84;5114078;28;20040;-94
2022/01/20 09:42:53;;;;;;;21.75;12.57;;;;;;;6.10;100.00;99297.31;5113328;28;20494;-94
2022/01/20 09:45:19;;;;;;;23.00;12.77;;;;;;;6.26;100.00;99329.84;5116037;28;20135;-96
2022/01/20 09:47:46;;;;;;;23.95;13.45;;;;;;;6.04;100.00;99293.78;5114671;28;20087;-95
2022/01/20 09:50:14;;;;;;;22.27;11.82;;;;;;;6.15;100.00;99313.13;5114692;28;20127;-96
2022/01/20 09:52:41;;;;;;;19.42;12.18;;;;;;;6.08;100.00;99306.97;5114856;28;20074;-95
2022/01/20 09:55:07;;;;;;;18.75;11.90;;;;;;;6.14;100.00;99319.31;5114255;28;20044;-94
2022/01/20 09:57:33;;;;;;;20.90;12.27;;;;;;;6.11;100.00;99300.81;5113712;28;20054;-96
2022/01/20 10:00:00;;;;;;;19.92;12.13;;;;;;;6.27;100.00;99312.25;5113376;28;20039;-95
2022/01/20 10:02:25;;;;;;;23.40;14.05;;;;;;;6.33;100.00;99328.97;5113103;28;20044;-96
2022/01/20 10:04:56;;;;;;;27.92;17.17;;;;;;;6.27;100.00;99310.50;5113124;28;20046;-96
2022/01/20 10:07:22;;;;;;;26.10;16.48;;;;;;;6.33;100.00;99313.13;5114353;28;20040;-96
2022/01/20 10:09:49;;;;;;;33.15;19.10;;;;;;;6.24;100.00;99284.06;5114872;28;20104;-95
2022/01/20 10:12:18;;;;;;;29.95;18.45;;;;;;;6.30;100.00;99297.28;5114713;28;20075;-95
2022/01/20 10:14:47;;;;;;;35.87;21.73;;;;;;;6.37;100.00;99296.38;5114367;28;20138;-95
2022/01/20 10:17:17;;;;;;;34.63;20.20;;;;;;;6.38;100.00;99297.28;5112515;28;20039;-95
2022/01/20 10:19:43;;;;;;;59.55;33.85;;;;;;;6.38;100.00;99284.94;5112733;28;20158;-96
2022/01/20 10:22:16;;;;;;;48.70;27.77;;;;;;;6.51;100.00;99296.38;5113264;28;20050;-95
2022/01/20 10:24:55;;;;;;;33.63;20.23;;;;;;;6.43;100.00;99261.16;5111671;28;20036;-96
2022/01/20 10:27:21;;;;;;;30.27;19.60;;;;;;;6.53;100.00;99265.53;5099370;28;20028;-95
2022/01/20 10:29:56;;;;;;;32.42;19.88;;;;;;;6.60;100.00;99271.69;5099135;28;20052;-96
2022/01/20 10:32:22;;;;;;;38.33;24.48;;;;;;;6.52;100.00;99249.69;5099430;28;20040;-96
2022/01/20 10:34:47;;;;;;;35.08;20.63;;;;;;;6.56;100.00;99251.44;5100049;28;20465;-95
2022/01/20 10:37:18;;;;;;;38.72;22.65;;;;;;;6.74;100.00;99259.31;5099528;28;20052;-96
2022/01/20 10:39:45;;;;;;;30.33;20.02;;;;;;;6.67;100.00;99236.41;5100861;28;20192;-95
2022/01/20 10:42:13;;;;;;;33.15;20.52;;;;;;;6.77;100.00;99251.34;5101320;28;20101;-96
2022/01/20 10:44:44;;;;;;;33.58;20.77;;;;;;;6.79;100.00;99246.06;5101571;28;20044;-96
2022/01/20 10:47:12;;;;;;;40.85;26.02;;;;;;;6.71;100.00;99242.56;5098754;28;20516;-96
2022/01/20 10:49:38;;;;;;;37.88;23.40;;;;;;;6.62;100.00;99235.56;5099021;28;20440;-96
2022/01/20 10:52:06;;;;;;;28.38;18.75;;;;;;;6.63;100.00;99245.22;5100577;28;20040;-96
2022/01/20 10:54:38;;;;;;;30.40;19.98;;;;;;;6.67;100.00;99241.69;5099380;28;20493;-96
2022/01/20 10:57:05;;;;;;;29.73;19.70;;;;;;;6.60;100.00;99223.25;5099600;28;20044;-96
2022/01/20 10:59:33;;;;;;;28.70;18.05;;;;;;;6.71;100.00;99240.81;5102152;28;20490;-96
2022/01/20 11:02:05;;;;;;;31.02;17.90;;;;;;;6.64;100.00;99217.06;5101517;28;20048;-96
2022/01/20 11:04:32;;;;;;;27.05;16.95;;;;;;;6.69;100.00;99232.00;5099815;28;20492;-96
2022/01/20 11:07:02;;;;;;;28.00;17.10;;;;;;;6.56;100.00;99212.66;5100959;28;20052;-95
2022/01/20 11:09:31;;;;;;;25.73;17.30;;;;;;;6.68;100.00;99224.97;5100503;28;20032;-96
2022/01/20 11:11:59;;;;;;;24.73;16.93;;;;;;;6.62;100.00;99219.72;5099112;28;20048;-94
2022/01/20 11:14:25;;;;;;;28.40;17.03;;;;;;;6.61;100.00;99220.56;5099043;28;20318;-95
2022/01/20 11:16:52;;;;;;;28.77;16.95;;;;;;;6.50;100.00;99210.03;5097907;28;20285;-96
2022/01/20 11:19:20;;;;;;;26.58;18.35;;;;;;;6.57;100.00;99238.22;5098361;28;20048;-95
2022/01/20 11:21:47;;;;;;;29.00;19.15;;;;;;;6.61;100.00;99241.72;5099064;28;20523;-96
2022/01/20 11:24:20;;;;;;;29.42;16.67;;;;;;;6.53;100.00;99209.19;5100910;28;20044;-96
2022/01/20 11:26:51;;;;;;;29.92;18.63;;;;;;;6.56;100.00;99207.38;5102076;28;20048;-95
2022/01/20 11:29:20;;;;;;;32.42;19.42;;;;;;;6.66;100.00;99202.94;5101411;28;20048;-96
2022/01/20 11:31:49;;;;;;;34.55;19.40;;;;;;;6.74;100.00;99198.53;5099972;28;20123;-95
2022/01/20 11:34:16;;;;;;;26.70;15.68;;;;;;;6.83;100.00;99215.19;5101940;28;20501;-95
2022/01/20 11:36:43;;;;;;;21.38;13.48;;;;;;;6.79;100.00;99201.13;5098794;28;20050;-96
2022/01/20 11:39:10;;;;;;;37.13;18.00;;;;;;;6.93;100.00;99193.13;5095556;28;20040;-96
2022/01/20 11:41:40;;;;;;;54.30;28.60;;;;;;;7.02;100.00;99186.91;5083156;28;20041;-95
2022/01/20 11:44:11;;;;;;;430.13;185.48;;;;;;;7.15;100.00;99194.72;5089183;28;20040;-96
2022/01/20 11:46:43;;;;;;;341.55;145.93;;;;;;;7.09;100.00;99173.66;5105397;28;20064;-96
2022/01/20 11:49:11;;;;;;;34.95;20.95;;;;;;;7.11;100.00;99160.38;5103197;28;20078;-96
2022/01/20 11:51:47;;;;;;;31.13;17.05;;;;;;;7.32;100.00;99173.47;5099136;28;20040;-96
2022/01/20 11:54:26;;;;;;;24.30;16.38;;;;;;;7.18;100.00;99143.59;5098673;28;20031;-96
2022/01/20 11:57:04;;;;;;;23.10;14.30;;;;;;;7.19;100.00;99137.41;5099323;28;20090;-96
2022/01/20 11:59:35;;;;;;;19.38;11.32;;;;;;;7.28;100.00;99131.19;5098972;28;20074;-96
2022/01/20 12:02:03;;;;;;;14.57;10.40;;;;;;;7.55;100.00;99161.84;5098091;28;20048;-95
2022/01/20 12:04:33;;;;;;;16.65;11.05;;;;;;;7.40;100.00;99121.38;5098572;28;20173;-96
2022/01/20 12:07:00;;;;;;;16.02;9.50;;;;;;;7.39;100.00;99119.63;5098753;28;20082;-96
2022/01/20 12:09:31;;;;;;;18.17;11.85;;;;;;;7.43;100.00;99125.75;5097241;28;20048;-96
2022/01/20 12:11:57;;;;;;;28.20;18.75;;;;;;;7.51;100.00;99141.56;5099075;28;20107;-96
2022/01/20 12:14:35;;;;;;;28.90;18.55;;;;;;;7.38;100.00;99123.16;5096697;28;20044;-95
2022/01/20 12:17:05;;;;;;;30.00;19.55;;;;;;;7.51;100.00;99153.03;5097195;28;20048;-95
2022/01/20 12:19:31;;;;;;;35.22;21.58;;;;;;;7.36;100.00;99124.94;5098488;28;20044;-96
2022/01/20 12:21:56;;;;;;;32.53;21.90;;;;;;;7.54;100.00;99131.81;5097757;28;20048;-95
2022/01/20 12:24:23;;;;;;;32.53;20.92;;;;;;;7.40;100.00;99110.78;5098081;28;20032;-96
2022/01/20 12:26:48;;;;;;;28.75;19.17;;;;;;;7.44;100.00;99102.81;5097938;28;20371;-95
2022/01/20 12:29:14;;;;;;;28.27;18.27;;;;;;;7.60;100.00;99118.53;5098164;28;20070;-96
2022/01/20 12:31:52;;;;;;;28.63;17.83;;;;;;;7.64;100.00;99118.53;5097570;28;20036;-96